Accueil
METAR-TAF:

METAR-TAF

Aéroports :

Portorož, Slovénie

latitude: 45-31N, longitude: 013-34E, altitude: 95 m

Observation

Le bulletin a été fait il y a 19 minutes, à 02:00 UTC
Température 4°C
Humidité 87%
Pression 1028 hPa
Visibilité 10 km ou plus

METAR: LJPZ 240200Z AUTO /////KT 9999 NCD 04/02 Q1028

Heure: 04:19 (02:19 UTC)

Prévision

Le bulletin a été fait il y a 3 heures et 19 minutes, à 23:00 UTC
Prévision valable du 24 à 00 UTC au 24 à 09 UTC
Vent 5 kt de est/sud-est
Visibilité 10 km ou plus
pas de nuages en-dessous de 1500 mètres et pas de cumulonimbus.

TAF: LJPZ 232300Z 2400/2409 12005KT CAVOK

Observations et prévisions météorologiques de plus de 4000 aéroports (messages METAR et TAF).

Les stations disponibles sont représentées par des disques jaunes et rouges sur la carte.

Passer la souris dessus pour voir le nom de la station.

Cliquer dessus pour voir les observations et prévisions météorologiques.

Pour changer de carte: cliquez sur les boutons verts avec une croix noire pour zoomer, sur le bouton vert avec un tiret pour effectuer un zoom arrière, ou sur les flèches vertes pour les cartes adjacentes.


METAR-TAF: